Thomas G. Thompson — KTDQ — position and weather

sailwx.info

Track history (hours):
 
Tides and Currents Weather Stations Pressure Air Temp Water Temp Dewpoint Dewpoint Depression Visibility Wind Speed Wind Dir Waves Ship Positions

Oceanographic research ship Thomas G. Thompson (USA)

Ship's website: http://www.ocean.washington.edu/vessels/TGT/tgt.html

Detailed information on ship capabilities available from University of Delaware's Ocean Information Center.

Owner: UNIVERSITY OF WASHINGTON, SEATTLE, WA. More information available from US FCC via Universal Licensing System and Coast Guard Vessel Documentation Center.

Last reported at 2015-Sep-03 01:14 UTC. Time now 2015-Sep-05 03:44 UTC.
Position N 48°20' W 124°06'.

Type: Other ship. MMSI: 366345000.

Date/timePositionNaut miles runAvg speedWind from/ knotsBaromVisibWave heightAir tempDewpointWater temp
2015-Sep-03 01:14N 48°20' W 124°06'811.6
2015-Sep-03 00:33N 48°18' W 123°55'1111.1
2015-Sep-02 23:33N 48°16' W 123°39'1211.9
2015-Sep-02 22:34N 48°14' W 123°21'1312.8
2015-Sep-02 21:33N 48°13' W 123°02'1713.3
2015-Sep-02 20:17N 48°06' W 122°39'1114.6
2015-Sep-02 19:33N 47°57' W 122°31'1413.6
2015-Sep-02 18:33N 47°43' W 122°25'4 3.7
2015-Sep-02 17:33N 47°40' W 122°24'3 2.9
2015-Sep-02 16:33N 47°39' W 122°20'  
2015-Aug-29 16:33N 47°39' W 122°20'3 2.9
2015-Aug-29 15:33N 47°40' W 122°24'2 2.1
2015-Aug-29 14:34N 47°42' W 122°26'7 7.0
2015-Aug-29 13:33N 47°49' W 122°28'8 7.8
2015-Aug-29 12:33N 47°56' W 122°32'1211.2
2015-Aug-29 11:27N 48°07' W 122°41'2612.6
2015-Aug-29 09:22N 48°13' W 123°19'1113.1
2015-Aug-29 08:33N 48°13' W 123°35'1212.4
2015-Aug-29 07:33N 48°13' W 123°54'1212.5
2015-Aug-29 06:33N 48°18' W 124°11'1211.5
2015-Aug-29 05:33N 48°23' W 124°27'1111.3
2015-Aug-29 04:33N 48°28' W 124°42'1111.0
2015-Aug-29 03:33N 48°28' W 124°58'  
Track history (hours):
 
Tides and Currents Weather Stations Pressure Air Temp Water Temp Dewpoint Dewpoint Depression Visibility Wind Speed Wind Dir Waves Ship Positions

Oceanographic research ship Thomas G. Thompson (USA)

Ship's website: http://www.ocean.washington.edu/vessels/TGT/tgt.html

Detailed information on ship capabilities available from University of Delaware's Ocean Information Center.

Owner: UNIVERSITY OF WASHINGTON, SEATTLE, WA. More information available from US FCC via Universal Licensing System and Coast Guard Vessel Documentation Center.

Last reported at 2015-Sep-03 01:14 UTC. Time now 2015-Sep-05 03:44 UTC.
Position N 48°20' W 124°06'.

Type: Other ship. MMSI: 366345000.

Date/timePositionNaut miles runAvg speedWind from/ knotsBaromVisibWave heightAir tempDewpointWater temp
2015-Sep-03 01:14N 48°20' W 124°06'811.6
2015-Sep-03 00:33N 48°18' W 123°55'1111.1
2015-Sep-02 23:33N 48°16' W 123°39'1211.9
2015-Sep-02 22:34N 48°14' W 123°21'1312.8
2015-Sep-02 21:33N 48°13' W 123°02'1713.3
2015-Sep-02 20:17N 48°06' W 122°39'1114.6
2015-Sep-02 19:33N 47°57' W 122°31'1413.6
2015-Sep-02 18:33N 47°43' W 122°25'4 3.7
2015-Sep-02 17:33N 47°40' W 122°24'3 2.9
2015-Sep-02 16:33N 47°39' W 122°20'  
2015-Aug-29 16:33N 47°39' W 122°20'3 2.9
2015-Aug-29 15:33N 47°40' W 122°24'2 2.1
2015-Aug-29 14:34N 47°42' W 122°26'7 7.0
2015-Aug-29 13:33N 47°49' W 122°28'8 7.8
2015-Aug-29 12:33N 47°56' W 122°32'1211.2
2015-Aug-29 11:27N 48°07' W 122°41'2612.6
2015-Aug-29 09:22N 48°13' W 123°19'1113.1
2015-Aug-29 08:33N 48°13' W 123°35'1212.4
2015-Aug-29 07:33N 48°13' W 123°54'1212.5
2015-Aug-29 06:33N 48°18' W 124°11'1211.5
2015-Aug-29 05:33N 48°23' W 124°27'1111.3
2015-Aug-29 04:33N 48°28' W 124°42'1111.0
2015-Aug-29 03:33N 48°28' W 124°58'  

Dump ship's entire track history